Time;durP1;ratioP1;P1;durP2;ratioP2;P2;SDS_P1;SDS_P2;PMS_P1;PMS_P2;Temp;Humidity;BMP_temperature;BMP_pressure;BME280_temperature;BME280_humidity;BME280_pressure;Samples;Min_cycle;Max_cycle;Signal;HPM_P1;HPM_P2
2022/04/06 00:02:06;;;;;;;3.27;3.00;;;;;;;5.58;61.93;99386.02;1785309;80;21395;-77
2022/04/06 00:04:32;;;;;;;4.72;3.87;;;;;;;5.57;62.01;99387.73;1785559;80;21389;-77
2022/04/06 00:06:58;;;;;;;4.20;3.47;;;;;;;5.57;62.06;99387.73;1783854;80;20882;-77
2022/04/06 00:09:24;;;;;;;4.00;3.60;;;;;;;5.57;62.08;99390.73;1765897;80;21584;-77
2022/04/06 00:11:50;;;;;;;4.13;3.43;;;;;;;5.57;62.16;99395.42;1774337;80;20863;-77
2022/04/06 00:14:17;;;;;;;6.05;3.33;;;;;;;5.59;62.24;99396.68;1768579;80;21510;-77
2022/04/06 00:16:43;;;;;;;4.08;2.95;;;;;;;5.61;62.31;99402.62;1765436;80;21057;-77
2022/04/06 00:19:10;;;;;;;;;;;;;;;5.60;62.29;99403.06;1737742;82;20972;-77
2022/04/06 00:21:36;;;;;;;3.62;3.33;;;;;;;5.61;63.17;99396.22;1735004;81;20585;-77
2022/04/06 00:24:05;;;;;;;3.50;3.20;;;;;;;5.63;62.53;99399.17;1679689;84;21691;-77
2022/04/06 00:26:31;;;;;;;4.22;3.87;;;;;;;5.63;62.51;99406.87;1684172;83;21580;-77
2022/04/06 00:28:58;;;;;;;3.77;3.43;;;;;;;5.63;62.59;99400.45;1717739;82;20911;-76
2022/04/06 00:31:23;;;;;;;4.55;3.67;;;;;;;5.64;62.67;99396.17;1700705;84;21509;-76
2022/04/06 00:33:50;;;;;;;4.47;3.90;;;;;;;5.64;62.73;99401.30;1740121;81;21460;-76
2022/04/06 00:36:16;;;;;;;4.90;3.87;;;;;;;5.64;62.74;99402.59;1711255;83;21488;-76
2022/04/06 00:38:42;;;;;;;5.03;4.53;;;;;;;5.51;62.83;99385.25;1711454;83;21309;-77
2022/04/06 00:41:08;;;;;;;4.70;4.22;;;;;;;5.60;62.88;99403.06;1711414;83;21333;-76
2022/04/06 00:43:34;;;;;;;5.40;4.53;;;;;;;5.59;62.97;99393.68;1712215;83;21801;-77
2022/04/06 00:46:00;;;;;;;6.40;4.77;;;;;;;5.60;62.99;99398.37;1701517;84;20950;-77
2022/04/06 00:48:26;;;;;;;7.60;6.20;;;;;;;5.60;63.07;99396.66;1737141;82;21541;-77
2022/04/06 00:50:53;;;;;;;11.80;6.30;;;;;;;5.60;63.13;99397.94;1731049;81;20971;-78
2022/04/06 00:53:20;;;;;;;7.42;6.00;;;;;;;5.61;63.18;99392.38;1695393;84;20984;-77
2022/04/06 00:55:46;;;;;;;7.87;6.53;;;;;;;5.61;63.21;99388.53;1690375;84;20875;-77
2022/04/06 00:58:12;;;;;;;6.25;5.65;;;;;;;5.60;63.23;99385.55;1777615;80;22161;-77
2022/04/06 01:00:38;;;;;;;7.22;5.33;;;;;;;5.59;63.32;99380.02;1736131;80;21586;-77
2022/04/06 01:03:05;;;;;;;6.22;5.10;;;;;;;5.59;63.43;99378.73;1730993;82;21516;-76
2022/04/06 01:05:31;;;;;;;5.10;4.60;;;;;;;5.59;63.42;99378.30;1697702;84;21499;-77
2022/04/06 01:08:00;;;;;;;5.22;4.47;;;;;;;5.58;63.49;99375.32;1710753;83;20884;-77
2022/04/06 01:10:26;;;;;;;5.37;4.87;;;;;;;5.60;63.55;99376.58;1723667;82;21401;-77
2022/04/06 01:12:52;;;;;;;4.83;4.35;;;;;;;5.58;63.55;99378.32;1726798;81;21779;-77
2022/04/06 01:15:18;;;;;;;5.78;5.30;;;;;;;5.59;63.67;99381.30;1732580;81;21390;-77
2022/04/06 01:17:45;;;;;;;5.77;4.63;;;;;;;5.59;63.68;99380.02;1728629;81;21612;-77
2022/04/06 01:20:13;;;;;;;5.70;4.42;;;;;;;5.60;63.76;99380.42;1732480;82;20868;-76
2022/04/06 01:22:39;;;;;;;4.42;4.00;;;;;;;5.59;63.79;99374.89;1732325;82;20892;-76
2022/04/06 01:25:07;;;;;;;4.83;4.37;;;;;;;5.61;63.83;99373.14;1733637;81;20859;-77
2022/04/06 01:27:33;;;;;;;5.60;4.42;;;;;;;5.60;63.91;99374.02;1738471;80;21307;-76
2022/04/06 01:29:59;;;;;;;6.03;4.95;;;;;;;5.61;63.93;99375.70;1732554;82;20904;-76
2022/04/06 01:32:32;;;;;;;8.17;6.67;;;;;;;5.60;64.03;99376.58;1729601;81;20876;-77
2022/04/06 01:34:59;;;;;;;5.20;3.95;;;;;;;5.60;64.11;99377.42;1754471;81;20883;-77
2022/04/06 01:37:26;;;;;;;6.00;3.75;;;;;;;5.62;64.09;99379.97;1769442;81;20902;-77
2022/04/06 01:39:52;;;;;;;;;;;;;;;5.60;64.18;99376.58;1771496;80;21374;-77
2022/04/06 01:42:20;;;;;;;4.75;3.62;;;;;;;5.60;64.90;99372.73;1763246;80;21143;-76
2022/04/06 01:44:48;;;;;;;4.90;3.90;;;;;;;5.58;64.30;99370.63;1726742;82;20936;-76
2022/04/06 01:47:17;;;;;;;5.12;3.65;;;;;;;5.57;64.36;99366.37;1703053;84;20908;-76
2022/04/06 01:52:29;;;;;;;7.62;3.98;;;;;;;5.57;64.45;99369.78;1732580;82;20943;-76
2022/04/06 01:55:02;;;;;;;6.78;4.22;;;;;;;5.57;64.52;99366.37;1746010;80;21066;-76
2022/04/06 01:57:30;;;;;;;6.47;3.45;;;;;;;5.57;64.59;99371.50;1750316;81;21031;-76
2022/04/06 01:59:57;;;;;;;4.30;3.85;;;;;;;5.55;64.60;99374.08;1726284;82;20943;-76
2022/04/06 02:02:27;;;;;;;4.30;3.52;;;;;;;5.56;64.67;99372.37;1732545;82;21373;-76
2022/04/06 02:04:53;;;;;;;6.15;3.95;;;;;;;5.56;64.66;99369.80;1743314;81;20891;-76
2022/04/06 02:07:19;;;;;;;4.85;4.40;;;;;;;5.57;64.73;99368.93;1733044;81;20916;-77
2022/04/06 02:09:45;;;;;;;4.97;4.45;;;;;;;5.55;64.75;99374.08;1730221;82;20975;-76
2022/04/06 02:12:12;;;;;;;6.25;4.20;;;;;;;5.56;64.80;99370.65;1686216;84;20893;-77
2022/04/06 02:14:40;;;;;;;5.70;4.00;;;;;;;5.56;64.85;99377.49;1663802;85;20905;-77
2022/04/06 02:17:07;;;;;;;4.92;3.83;;;;;;;5.55;64.87;99376.65;1686136;83;20937;-77
2022/04/06 02:19:36;;;;;;;4.17;3.75;;;;;;;5.56;64.95;99380.06;1676532;83;20969;-77
2022/04/06 02:22:09;;;;;;;5.22;4.37;;;;;;;5.56;64.99;99384.75;1666179;84;20952;-76
2022/04/06 02:24:35;;;;;;;6.78;4.12;;;;;;;5.56;65.02;99380.91;1692562;83;20920;-76
2022/04/06 02:27:04;;;;;;;4.90;4.37;;;;;;;5.58;65.12;99391.98;1692055;83;20921;-76
2022/04/06 02:29:39;;;;;;;4.62;4.10;;;;;;;5.57;65.12;99380.03;1692466;84;20944;-76
2022/04/06 02:32:06;;;;;;;5.25;4.10;;;;;;;5.59;65.18;99386.42;1692485;83;20893;-77
2022/04/06 02:34:33;;;;;;;5.35;4.17;;;;;;;5.58;65.23;99383.02;1672585;84;20980;-76
2022/04/06 02:37:02;;;;;;;5.80;4.15;;;;;;;5.58;65.26;99383.02;1688635;83;20905;-76
2022/04/06 02:39:29;;;;;;;4.17;3.70;;;;;;;5.58;65.28;99388.14;1692655;83;20881;-76
2022/04/06 02:41:55;;;;;;;5.50;3.65;;;;;;;5.57;65.28;99393.29;1692335;83;20961;-77
2022/04/06 02:44:21;;;;;;;4.43;4.03;;;;;;;5.56;65.36;99395.01;1690450;83;20882;-76
2022/04/06 02:46:48;;;;;;;4.43;4.03;;;;;;;5.55;65.43;99391.19;1680027;84;22368;-76
2022/04/06 02:49:15;;;;;;;4.37;3.47;;;;;;;5.54;65.46;99390.77;1684224;84;20896;-76
2022/04/06 02:51:41;;;;;;;4.67;3.98;;;;;;;5.53;65.52;99390.36;1682398;84;20866;-77
2022/04/06 02:54:07;;;;;;;4.20;3.77;;;;;;;5.52;65.59;99394.64;1669214;84;20964;-77
2022/04/06 02:56:34;;;;;;;4.30;3.87;;;;;;;5.52;65.64;99386.11;1684140;84;21004;-77
2022/04/06 02:59:01;;;;;;;4.25;3.85;;;;;;;5.52;65.64;99382.26;1692520;84;20953;-76
2022/04/06 03:01:27;;;;;;;;;;;;;;;5.51;65.67;99384.41;1694750;83;20936;-76
2022/04/06 03:03:53;;;;;;;33.75;31.35;;;;;;;5.47;66.35;99383.61;1692682;83;22809;-76
2022/04/06 03:06:19;;;;;;;5.08;4.10;;;;;;;5.48;65.86;99384.02;1692596;84;20971;-76
2022/04/06 03:08:46;;;;;;;5.83;4.55;;;;;;;5.48;65.87;99383.17;1685640;83;21540;-76
2022/04/06 03:11:13;;;;;;;6.80;4.85;;;;;;;5.48;65.90;99378.05;1682067;84;21080;-76
2022/04/06 03:13:39;;;;;;;5.72;4.15;;;;;;;5.46;65.91;99374.22;1691240;83;20920;-76
2022/04/06 03:16:07;;;;;;;4.65;4.20;;;;;;;5.45;65.98;99366.55;1709477;83;21514;-76
2022/04/06 03:18:33;;;;;;;5.62;4.60;;;;;;;5.43;66.02;99369.14;1699599;84;20920;-76
2022/04/06 03:21:00;;;;;;;6.42;4.15;;;;;;;5.42;66.11;99372.58;1707369;84;21154;-76
2022/04/06 03:23:28;;;;;;;7.92;5.58;;;;;;;5.43;66.18;99365.73;1703626;83;21586;-76
2022/04/06 03:25:54;;;;;;;8.33;5.93;;;;;;;5.43;66.17;99364.45;1705538;83;20904;-77
2022/04/06 03:28:20;;;;;;;5.80;5.30;;;;;;;5.43;66.24;99367.02;1706593;83;21761;-77
2022/04/06 03:30:46;;;;;;;6.83;5.80;;;;;;;5.44;66.31;99367.42;1706791;83;20912;-76
2022/04/06 03:33:14;;;;;;;6.10;5.28;;;;;;;5.46;66.35;99370.81;1696417;83;21029;-76
2022/04/06 03:35:40;;;;;;;6.62;5.47;;;;;;;5.48;66.34;99374.20;1715411;82;21086;-76
2022/04/06 03:38:07;;;;;;;9.78;5.65;;;;;;;5.48;66.37;99372.48;1710515;83;20979;-76
2022/04/06 03:40:32;;;;;;;7.03;5.87;;;;;;;5.49;66.44;99366.92;1706412;83;20994;-76
2022/04/06 03:42:58;;;;;;;7.00;6.20;;;;;;;5.49;66.43;99363.92;1679980;85;20931;-76
2022/04/06 03:45:25;;;;;;;8.85;5.72;;;;;;;5.47;66.45;99356.69;1703522;84;21134;-76
2022/04/06 03:47:51;;;;;;;9.80;6.83;;;;;;;5.46;66.51;99359.28;1690132;83;21125;-76
2022/04/06 03:50:18;;;;;;;6.85;6.00;;;;;;;5.45;66.52;99356.30;1699714;83;20948;-76
2022/04/06 03:52:44;;;;;;;8.95;6.97;;;;;;;5.42;66.55;99353.78;1709001;83;20912;-76
2022/04/06 03:55:10;;;;;;;6.40;5.67;;;;;;;5.40;66.60;99353.81;1710147;83;21609;-75
2022/04/06 03:57:38;;;;;;;9.10;6.15;;;;;;;5.38;66.65;99349.58;1709010;83;21474;-76
2022/04/06 04:00:08;;;;;;;6.58;5.92;;;;;;;5.38;66.75;99353.42;1709018;83;20912;-76
2022/04/06 04:02:34;;;;;;;7.62;6.12;;;;;;;5.38;66.81;99358.11;1698686;83;20983;-76
2022/04/06 04:05:01;;;;;;;8.80;6.40;;;;;;;5.37;66.81;99353.85;1701339;83;20943;-76
2022/04/06 04:07:27;;;;;;;6.80;6.20;;;;;;;5.38;66.86;99353.42;1700156;84;21432;-76
2022/04/06 04:09:53;;;;;;;7.45;6.53;;;;;;;5.35;66.88;99352.19;1709074;83;20924;-76
2022/04/06 04:12:19;;;;;;;9.08;6.67;;;;;;;5.35;66.95;99358.59;1721201;82;20911;-76
2022/04/06 04:14:46;;;;;;;7.07;6.30;;;;;;;5.35;67.00;99357.31;1695056;83;20880;-76
2022/04/06 04:17:12;;;;;;;7.60;6.33;;;;;;;5.35;67.04;99356.03;1701501;83;21010;-76
2022/04/06 04:19:38;;;;;;;8.10;6.22;;;;;;;5.35;67.12;99351.75;1714312;83;21101;-76
2022/04/06 04:22:06;;;;;;;6.92;6.08;;;;;;;5.37;67.11;99354.29;1710428;82;21091;-76
2022/04/06 04:24:32;;;;;;;6.83;5.85;;;;;;;5.37;67.13;99351.72;1691625;83;21063;-76
2022/04/06 04:26:59;;;;;;;7.72;6.05;;;;;;;5.38;67.19;99353.42;1691173;82;20946;-76
2022/04/06 04:29:25;;;;;;;7.75;7.05;;;;;;;5.38;67.22;99350.86;1723130;82;20898;-77
2022/04/06 04:31:51;;;;;;;7.77;6.37;;;;;;;5.38;67.26;99343.16;1729283;82;20943;-76
2022/04/06 04:34:17;;;;;;;7.67;5.97;;;;;;;5.36;67.28;99350.03;1687740;82;21715;-76
2022/04/06 04:36:43;;;;;;;7.03;6.27;;;;;;;5.36;67.19;99350.88;1772161;79;20943;-76
2022/04/06 04:39:09;;;;;;;7.20;5.83;;;;;;;5.36;67.19;99350.88;1760795;79;21304;-76
2022/04/06 04:41:36;;;;;;;6.75;6.05;;;;;;;5.37;67.45;99351.72;1771344;80;20882;-76
2022/04/06 04:44:02;;;;;;;7.20;6.60;;;;;;;5.38;67.48;99350.42;1773448;80;20906;-76
2022/04/06 04:46:28;;;;;;;6.60;5.58;;;;;;;5.38;67.54;99351.70;1766557;79;20977;-75
2022/04/06 04:48:55;;;;;;;7.00;6.30;;;;;;;5.39;67.55;99347.42;1800881;79;20886;-75
2022/04/06 04:51:21;;;;;;;5.80;5.20;;;;;;;5.39;67.53;99340.58;1772436;79;20923;-75
2022/04/06 04:53:47;;;;;;;6.97;6.08;;;;;;;5.36;67.54;99343.63;1766663;80;20858;-76
2022/04/06 04:56:16;;;;;;;6.70;5.78;;;;;;;5.33;67.69;99344.08;1776105;80;20898;-76
2022/04/06 04:58:42;;;;;;;6.53;5.85;;;;;;;5.35;67.68;99338.09;1775116;79;20870;-75
2022/04/06 05:01:08;;;;;;;5.62;5.10;;;;;;;5.33;67.67;99343.23;1771113;79;20902;-75
2022/04/06 05:03:34;;;;;;;7.45;5.70;;;;;;;5.31;67.83;99343.26;1768466;80;20930;-76
2022/04/06 05:06:00;;;;;;;6.42;5.08;;;;;;;5.33;67.86;99347.92;1754539;80;20863;-76
2022/04/06 05:08:27;;;;;;;5.03;4.62;;;;;;;5.32;67.84;99344.11;1776040;80;20893;-76
2022/04/06 05:10:53;;;;;;;7.47;5.45;;;;;;;5.32;67.86;99345.39;1772903;79;20941;-77
2022/04/06 05:13:20;;;;;;;8.33;5.03;;;;;;;5.30;67.88;99345.84;1747142;81;20918;-76
2022/04/06 05:15:46;;;;;;;;;;;;;;;5.28;67.91;99344.58;1755680;80;20887;-76
2022/04/06 05:18:12;;;;;;;6.03;4.33;;;;;;;5.24;68.11;99335.25;1747335;81;20822;-76
2022/04/06 05:20:38;;;;;;;4.70;4.28;;;;;;;5.24;68.11;99335.25;1741563;81;20899;-76
2022/04/06 05:23:04;;;;;;;4.33;3.92;;;;;;;5.21;67.98;99341.70;1764911;81;20874;-76
2022/04/06 05:25:31;;;;;;;4.12;3.72;;;;;;;5.19;68.07;99340.91;1764098;81;20887;-76
2022/04/06 05:27:58;;;;;;;4.42;4.03;;;;;;;5.17;68.01;99343.92;1752454;80;20847;-76
2022/04/06 05:30:26;;;;;;;6.55;4.67;;;;;;;5.16;68.10;99337.55;1749715;81;20930;-76
2022/04/06 05:32:55;;;;;;;5.53;4.92;;;;;;;5.16;68.21;99341.39;1779549;79;20847;-76
2022/04/06 05:35:25;;;;;;;5.72;5.20;;;;;;;5.16;68.29;99349.08;1768592;81;20926;-76
2022/04/06 05:37:51;;;;;;;4.92;4.53;;;;;;;5.16;68.30;99346.52;1733217;81;20975;-76
2022/04/06 05:40:19;;;;;;;4.33;3.95;;;;;;;5.15;68.39;99345.66;1714809;82;20918;-76
2022/04/06 05:42:48;;;;;;;3.83;3.45;;;;;;;5.17;68.43;99346.48;1740284;81;20902;-76
2022/04/06 05:45:17;;;;;;;3.85;3.33;;;;;;;5.16;68.33;99343.52;1735185;81;20946;-76
2022/04/06 05:47:44;;;;;;;6.42;3.98;;;;;;;5.14;68.49;99338.84;1728633;81;20963;-76
2022/04/06 05:50:10;;;;;;;3.90;3.50;;;;;;;5.16;68.59;99338.83;1730556;81;20911;-76
2022/04/06 05:52:36;;;;;;;;;;;;;;;5.17;68.58;99339.23;1709062;82;20935;-75
2022/04/06 05:55:04;;;;;;;4.90;4.50;;;;;;;5.18;69.19;99339.22;1738287;82;20179;-75
2022/04/06 05:57:37;;;;;;;4.80;4.40;;;;;;;5.19;68.73;99348.59;1734593;82;20934;-75
2022/04/06 06:00:07;;;;;;;7.70;6.58;;;;;;;5.21;68.72;99345.55;1733401;82;20947;-75
2022/04/06 06:02:37;;;;;;;7.58;6.83;;;;;;;5.23;68.71;99350.65;1734947;81;20936;-77
2022/04/06 06:05:04;;;;;;;9.88;7.20;;;;;;;5.24;68.80;99345.94;1732892;82;20883;-77
2022/04/06 06:07:30;;;;;;;6.58;5.92;;;;;;;5.26;68.92;99342.91;1735724;82;20915;-76
2022/04/06 06:09:56;;;;;;;8.13;7.08;;;;;;;5.30;68.92;99350.97;1740271;81;20898;-76
2022/04/06 06:12:23;;;;;;;38.50;36.15;;;;;;;5.31;69.01;99350.95;1706416;82;20920;-76
2022/04/06 06:14:49;;;;;;;45.25;20.90;;;;;;;5.36;69.02;99352.59;1713060;82;20900;-76
2022/04/06 06:17:15;;;;;;;6.58;5.92;;;;;;;5.34;68.96;99341.09;1714686;82;20967;-76
2022/04/06 06:19:41;;;;;;;1999.90;999.90;;;;;;;5.33;68.85;99332.55;1684098;83;20940;-76
2022/04/06 06:22:07;;;;;;;1999.90;999.90;;;;;;;5.29;68.90;99335.18;1676318;83;20952;-76
2022/04/06 06:24:33;;;;;;;7.53;5.72;;;;;;;5.29;69.06;99339.02;1677575;83;20996;-76
2022/04/06 06:26:59;;;;;;;6.28;5.67;;;;;;;5.28;69.15;99333.48;1672873;83;20956;-76
2022/04/06 06:29:25;;;;;;;5.97;5.47;;;;;;;5.26;69.11;99333.51;1666287;83;20905;-76
2022/04/06 06:31:51;;;;;;;8.53;5.60;;;;;;;5.25;69.18;99331.81;1686843;83;20910;-75
2022/04/06 06:34:17;;;;;;;5.92;5.37;;;;;;;5.26;69.29;99331.37;1685027;84;20956;-75
2022/04/06 06:36:43;;;;;;;6.80;6.20;;;;;;;5.27;69.36;99342.89;1676385;83;20972;-75
2022/04/06 06:39:09;;;;;;;6.20;5.50;;;;;;;5.30;69.44;99346.69;1675075;83;20917;-75
2022/04/06 06:41:35;;;;;;;6.40;5.80;;;;;;;5.35;69.42;99340.65;1679347;83;20909;-75
2022/04/06 06:44:02;;;;;;;6.03;5.43;;;;;;;5.35;69.44;99361.16;1686250;83;20842;-76
2022/04/06 06:46:29;;;;;;;5.72;5.22;;;;;;;5.37;69.50;99348.73;1641709;84;20977;-76
2022/04/06 06:49:02;;;;;;;5.83;5.28;;;;;;;5.39;69.45;99333.33;1672712;83;20966;-76
2022/04/06 06:51:24;;;;;;;5.85;5.05;;;;;;;5.41;69.59;99343.13;1684504;84;20925;-76
2022/04/06 06:53:50;;;;;;;5.28;4.78;;;;;;;5.45;69.65;99343.48;1685749;84;20912;-75
2022/04/06 06:56:16;;;;;;;6.33;5.83;;;;;;;5.49;69.69;99341.28;1683181;83;20917;-75
2022/04/06 06:58:42;;;;;;;6.27;5.73;;;;;;;5.51;69.72;99330.13;1668057;83;20893;-75
2022/04/06 07:01:11;;;;;;;8.08;6.05;;;;;;;5.54;69.82;99331.37;1679645;83;20969;-76
2022/04/06 07:03:37;;;;;;;335.70;34.43;;;;;;;5.57;69.84;99325.34;1681862;83;20929;-76
2022/04/06 07:06:03;;;;;;;464.90;106.73;;;;;;;5.63;69.93;99331.66;1655662;83;20883;-76
2022/04/06 07:08:29;;;;;;;315.80;56.40;;;;;;;5.70;69.96;99327.27;1686894;84;20940;-76
2022/04/06 07:10:57;;;;;;;8.70;7.87;;;;;;;5.75;70.01;99328.85;1684792;83;20869;-76
2022/04/06 07:13:24;;;;;;;10.68;9.20;;;;;;;5.82;70.11;99328.31;1720716;83;20935;-76
2022/04/06 07:15:50;;;;;;;12.33;9.65;;;;;;;5.89;70.19;99329.50;1721435;81;20954;-76
2022/04/06 07:18:18;;;;;;;12.05;10.28;;;;;;;6.00;70.34;99330.59;1720093;83;20965;-76
2022/04/06 07:20:44;;;;;;;127.32;19.12;;;;;;;6.14;70.42;99336.75;1719582;82;20927;-76
2022/04/06 07:23:10;;;;;;;16.85;14.00;;;;;;;6.30;70.57;99334.28;1721200;82;20911;-76
2022/04/06 07:25:36;;;;;;;17.30;14.57;;;;;;;6.69;70.74;99324.94;1716192;82;20915;-76
2022/04/06 07:28:03;;;;;;;16.25;14.50;;;;;;;6.69;70.74;99324.94;1701063;82;21502;-76
2022/04/06 07:30:30;;;;;;;16.60;14.35;;;;;;;6.85;70.72;99324.15;1725916;81;21833;-76
2022/04/06 07:32:58;;;;;;;17.12;15.32;;;;;;;7.01;70.72;99323.37;1721295;81;20923;-76
2022/04/06 07:35:24;;;;;;;18.40;15.70;;;;;;;7.15;70.87;99322.63;1701807;83;20955;-76
2022/04/06 07:37:51;;;;;;;17.30;15.60;;;;;;;7.30;70.89;99323.53;1715557;82;21540;-77
2022/04/06 07:40:20;;;;;;;;;;;;;;;7.44;70.80;99320.64;1716122;81;20872;-76
2022/04/06 07:42:49;;;;;;;18.45;15.43;;;;;;;7.58;71.62;99326.30;1712074;81;20131;-77
2022/04/06 07:45:18;;;;;;;44.08;16.57;;;;;;;7.72;71.01;99323.39;1719072;81;20958;-76
2022/04/06 07:47:48;;;;;;;51.53;15.65;;;;;;;7.85;70.95;99322.16;1688485;82;21537;-77
2022/04/06 07:50:15;;;;;;;15.48;13.48;;;;;;;8.02;70.95;99330.30;1699355;82;20958;-76
2022/04/06 07:52:48;;;;;;;16.02;14.40;;;;;;;8.18;71.00;99321.73;1737806;80;20938;-76
2022/04/06 07:55:14;;;;;;;15.72;14.23;;;;;;;8.35;71.04;99328.55;1778842;80;21356;-76
2022/04/06 07:57:41;;;;;;;241.60;28.73;;;;;;;8.51;71.00;99321.25;1774538;80;21432;-76
2022/04/06 08:00:09;;;;;;;;;;;;;;;8.67;71.10;99330.23;1773616;80;20882;-76
2022/04/06 08:02:36;;;;;;;13.50;12.00;;;;;;;8.78;71.68;99325.61;1779330;80;20103;-76
2022/04/06 08:05:04;;;;;;;14.05;12.23;;;;;;;8.88;71.04;99324.87;1774621;80;20925;-76
2022/04/06 08:07:31;;;;;;;12.20;10.95;;;;;;;8.94;71.07;99325.53;1773370;79;20866;-76
2022/04/06 08:09:57;;;;;;;12.78;11.48;;;;;;;9.01;71.01;99332.63;1779392;79;20862;-76
2022/04/06 08:12:24;;;;;;;71.47;13.13;;;;;;;9.06;70.92;99326.05;1775967;79;20929;-76
2022/04/06 08:14:50;;;;;;;11.33;9.85;;;;;;;9.10;71.01;99324.63;1782689;79;21498;-75
2022/04/06 08:17:17;;;;;;;276.00;115.00;;;;;;;9.12;71.02;99324.58;1782920;79;21383;-76
2022/04/06 08:19:43;;;;;;;12.68;9.48;;;;;;;9.15;71.01;99328.34;1783380;80;20909;-76
2022/04/06 08:22:09;;;;;;;13.53;10.80;;;;;;;9.20;70.97;99331.19;1778896;80;21402;-76
2022/04/06 08:24:35;;;;;;;10.43;9.30;;;;;;;9.25;71.00;99331.89;1783981;79;21552;-76
2022/04/06 08:27:04;;;;;;;10.50;9.43;;;;;;;9.33;71.10;99335.52;1785765;79;21582;-76
2022/04/06 08:29:30;;;;;;;9.63;8.83;;;;;;;9.45;71.19;99329.95;1782470;79;21493;-76
2022/04/06 08:31:56;;;;;;;11.43;8.53;;;;;;;9.55;71.23;99339.08;1775654;79;20889;-76
2022/04/06 08:34:22;;;;;;;8.63;7.83;;;;;;;9.66;71.27;99342.61;1777367;79;21503;-76
2022/04/06 08:36:48;;;;;;;9.58;8.53;;;;;;;9.77;71.26;99335.36;1778392;79;20906;-77
2022/04/06 08:39:15;;;;;;;9.15;8.08;;;;;;;9.84;71.21;99336.84;1738740;81;21517;-76
2022/04/06 08:41:42;;;;;;;;;;;;;;;9.90;71.20;99340.92;1784611;78;20925;-76
2022/04/06 08:44:09;;;;;;;8.78;7.95;;;;;;;9.93;71.54;99343.41;1776940;78;21017;-76
2022/04/06 08:46:38;;;;;;;9.25;8.35;;;;;;;9.96;71.16;99345.88;1769424;79;21322;-76
2022/04/06 08:49:06;;;;;;;9.65;8.73;;;;;;;10.03;71.27;99351.69;1785282;79;21788;-75
2022/04/06 08:51:36;;;;;;;9.60;8.68;;;;;;;10.15;71.25;99344.36;1782145;79;21390;-76
2022/04/06 08:54:04;;;;;;;12.13;9.08;;;;;;;10.31;71.29;99354.20;1775851;79;21484;-76
2022/04/06 08:56:30;;;;;;;9.75;8.48;;;;;;;10.46;71.25;99352.34;1783641;79;21472;-75
2022/04/06 08:58:58;;;;;;;8.95;7.80;;;;;;;10.58;71.37;99350.61;1748108;81;21843;-75
2022/04/06 09:01:24;;;;;;;10.85;7.60;;;;;;;10.70;71.40;99357.08;1742368;80;20934;-76
2022/04/06 09:03:50;;;;;;;9.73;7.33;;;;;;;10.77;71.37;99346.91;1729161;80;21328;-76
2022/04/06 09:06:18;;;;;;;9.87;6.60;;;;;;;10.82;71.22;99348.88;1748056;80;20980;-76
2022/04/06 09:08:47;;;;;;;6.80;6.15;;;;;;;10.88;71.32;99346.06;1740830;80;21491;-76
2022/04/06 09:11:20;;;;;;;6.60;6.03;;;;;;;10.92;71.26;99354.06;1695801;82;21871;-76
2022/04/06 09:13:51;;;;;;;8.20;7.28;;;;;;;10.90;71.23;99358.48;1775682;79;20938;-75
2022/04/06 09:16:18;;;;;;;7.17;6.40;;;;;;;10.88;71.25;99358.53;1770218;79;20945;-77
2022/04/06 09:18:46;;;;;;;7.42;6.72;;;;;;;10.87;71.24;99355.56;1767524;79;21363;-76
2022/04/06 09:21:15;;;;;;;9.78;6.70;;;;;;;10.85;71.38;99350.89;1762806;80;21802;-76
2022/04/06 09:23:49;;;;;;;8.53;7.03;;;;;;;10.80;71.25;99354.09;1763408;80;20903;-77
2022/04/06 09:26:23;;;;;;;9.15;8.25;;;;;;;10.83;71.33;99355.28;1774002;79;20954;-77
2022/04/06 09:28:48;;;;;;;8.83;6.90;;;;;;;10.87;71.39;99343.08;1763731;79;20886;-77
2022/04/06 09:31:16;;;;;;;15.20;7.83;;;;;;;10.94;71.41;99342.76;1762047;79;21521;-76
2022/04/06 09:33:57;;;;;;;9.73;8.63;;;;;;;11.04;71.43;99339.38;1765769;79;20915;-76
2022/04/06 09:36:29;;;;;;;8.20;7.37;;;;;;;11.11;71.44;99344.70;1769777;79;20908;-76
2022/04/06 09:38:55;;;;;;;8.28;7.55;;;;;;;11.16;71.33;99341.94;1771330;79;20866;-76
2022/04/06 09:41:22;;;;;;;9.65;8.55;;;;;;;11.18;71.31;99346.61;1776234;79;21320;-76
2022/04/06 09:43:52;;;;;;;9.00;8.13;;;;;;;11.14;71.25;99347.63;1754243;80;20943;-76
2022/04/06 09:49:23;;;;;;;8.98;8.05;;;;;;;11.20;71.42;99343.52;1780122;79;20890;-75
2022/04/06 09:51:51;;;;;;;9.75;7.60;;;;;;;11.27;71.37;99337.20;1765111;79;20938;-75
2022/04/06 09:54:24;;;;;;;8.65;7.70;;;;;;;11.27;71.35;99335.91;1762680;80;20894;-75
2022/04/06 09:56:54;;;;;;;9.13;7.67;;;;;;;11.22;71.42;99336.08;1767891;80;20896;-75
2022/04/06 09:59:20;;;;;;;12.82;8.25;;;;;;;11.19;71.34;99332.32;1769532;80;20906;-75
2022/04/06 10:01:56;;;;;;;8.83;7.37;;;;;;;11.18;71.35;99331.09;1733899;81;20900;-75
2022/04/06 10:04:25;;;;;;;9.65;8.68;;;;;;;11.19;71.44;99330.19;1765965;80;20871;-75
2022/04/06 10:06:52;;;;;;;11.93;8.85;;;;;;;11.28;71.50;99331.96;1767544;79;20882;-75
2022/04/06 10:09:22;;;;;;;10.13;7.45;;;;;;;11.46;71.58;99335.53;1766629;79;20962;-76
2022/04/06 10:11:51;;;;;;;9.68;7.60;;;;;;;11.62;71.50;99333.17;1773988;79;20953;-76
2022/04/06 10:14:19;;;;;;;12.82;8.25;;;;;;;11.72;71.39;99328.47;1747501;80;20966;-75
2022/04/06 10:16:46;;;;;;;8.63;7.53;;;;;;;11.73;71.31;99336.17;1741914;80;20975;-75
2022/04/06 10:19:16;;;;;;;8.43;6.97;;;;;;;11.67;71.21;99330.41;1733780;80;21353;-75
2022/04/06 10:21:56;;;;;;;8.83;7.03;;;;;;;11.60;71.28;99328.52;1736187;80;20911;-75
2022/04/06 10:25:08;;;;;;;10.90;7.70;;;;;;;11.50;71.19;99329.78;1732705;80;21389;-76
2022/04/06 10:27:42;;;;;;;9.48;7.72;;;;;;;11.43;71.23;99320.61;1738715;80;20939;-76
2022/04/06 10:30:14;;;;;;;10.82;8.53;;;;;;;11.41;71.28;99318.09;1731845;80;21333;-76
2022/04/06 10:32:49;;;;;;;10.13;8.20;;;;;;;11.39;71.25;99317.76;1696099;84;20903;-76
2022/04/06 10:35:28;;;;;;;10.18;7.15;;;;;;;11.36;71.24;99315.29;1707488;82;21018;-76
2022/04/06 10:38:05;;;;;;;10.58;7.62;;;;;;;11.33;71.25;99311.53;1700711;84;20914;-76
2022/04/06 10:40:49;;;;;;;;;;;;;;;11.31;71.24;99314.17;1719825;82;20884;-75
2022/04/06 10:43:40;;;;;;;9.85;8.55;;;;;;;11.28;71.26;99316.89;1720995;82;20120;-76
2022/04/06 10:46:12;;;;;;;12.40;8.68;;;;;;;11.26;71.27;99313.06;1712370;82;21544;-77
2022/04/06 10:49:13;;;;;;;12.88;10.63;;;;;;;11.31;71.28;99313.34;1712917;82;21082;-77
2022/04/06 10:51:48;;;;;;;14.38;11.48;;;;;;;11.39;71.41;99303.52;1710591;82;21558;-77
2022/04/06 10:54:20;;;;;;;14.50;11.43;;;;;;;11.48;71.37;99310.44;1532525;82;10001073;-77
2022/04/06 10:56:53;;;;;;;14.53;12.50;;;;;;;11.65;71.46;99305.02;1716555;82;21415;-77
2022/04/06 10:59:24;;;;;;;16.02;12.15;;;;;;;11.84;71.55;99306.82;1706701;82;20981;-77
2022/04/06 11:02:17;;;;;;;18.02;12.80;;;;;;;12.09;71.60;99301.86;1713059;82;20943;-77
2022/04/06 11:04:44;;;;;;;17.48;12.47;;;;;;;12.31;71.46;99301.78;1713904;81;21528;-77
2022/04/06 11:07:11;;;;;;;15.32;11.83;;;;;;;12.45;71.25;99298.96;1722138;81;20908;-77
2022/04/06 11:12:29;;;;;;;13.30;11.05;;;;;;;12.58;71.20;99298.77;1720807;82;20943;-77
2022/04/06 11:15:04;;;;;;;14.93;11.08;;;;;;;12.68;71.22;99294.47;1706956;82;20944;-76
2022/04/06 11:17:34;;;;;;;12.85;9.40;;;;;;;12.71;71.11;99299.52;1708298;82;20942;-76
2022/04/06 11:20:19;;;;;;;11.85;10.58;;;;;;;12.65;70.93;99295.45;1706448;81;20880;-76
2022/04/06 11:22:54;;;;;;;11.63;9.03;;;;;;;12.55;70.93;99296.31;1704027;82;20915;-76
2022/04/06 11:25:29;;;;;;;16.67;9.63;;;;;;;12.47;70.97;99301.03;1699074;82;20899;-78
2022/04/06 11:28:07;;;;;;;11.40;8.85;;;;;;;12.42;70.95;99306.87;1702568;82;20927;-78
2022/04/06 11:30:34;;;;;;;11.20;8.83;;;;;;;12.40;70.92;99303.52;1702778;82;20907;-77
2022/04/06 11:33:04;;;;;;;15.65;9.10;;;;;;;12.42;70.96;99308.63;1705175;83;20904;-78
2022/04/06 11:35:36;;;;;;;11.08;9.45;;;;;;;12.46;71.00;99311.02;1705801;82;20923;-77
2022/04/06 11:38:08;;;;;;;11.45;8.75;;;;;;;12.52;70.93;99302.94;1707062;83;20871;-77
2022/04/06 11:40:39;;;;;;;10.82;8.80;;;;;;;12.58;70.90;99297.93;1704497;83;20950;-78
2022/04/06 11:43:05;;;;;;;16.42;9.58;;;;;;;12.71;71.00;99302.11;1702866;82;21046;-77
2022/04/06 11:45:37;;;;;;;17.85;10.08;;;;;;;12.81;70.88;99297.73;1712035;82;20979;-77
2022/04/06 11:48:12;;;;;;;15.58;10.48;;;;;;;12.90;70.84;99296.00;1712682;82;20981;-77
2022/04/06 11:50:39;;;;;;;12.50;9.43;;;;;;;12.99;70.79;99295.19;1703851;82;20952;-77